Latest Weather Observations for Coolangatta

IDQ60901

Issued at 10:55 am EST Sunday 26 October 2014 (issued every 10 minutes, with the page automatically refreshed every 10 minutes)

About weather observations | Map of Brisbane area stations | Latest observations for Brisbane area | Other Formats
Station Details ID: 040717 Name: COOLANGATTA Lat: -28.17 Lon: 153.51 Height: 4.0 m
Data from the previous 72 hours. | See also: Recent months at Coolangatta
Date/Time
EST
Tmp

°C
App
Tmp
°C
Dew
Point
°C
Rel
Hum
%
Delta-T

°C
Wind Press
QNH
hPa
Press
MSL
hPa
Rain
since
9 am
mm
Dir
 
Spd
km/h
Gust
km/h
Spd
kts
Gust
kts
26/10:30am 24.7 21.9 18.2 67 4.1 N 30 41 16 22 1015.5 1015.5 0.0
26/10:00am 25.0 22.0 18.7 68 4.0 N 32 41 17 22 1015.9 1015.9 0.0
26/09:30am 24.4 21.2 18.1 68 4.0 N 32 39 17 21 1016.2 1016.2 0.0
26/09:00am 24.5 21.4 18.4 69 3.8 N 32 41 17 22 1016.2 1016.2 0.0
26/08:30am 24.4 23.0 18.8 71 3.6 N 24 32 13 17 1016.4 1016.4 0.0
26/08:00am 23.2 20.5 17.6 71 3.5 N 28 35 15 19 1016.2 1016.2 0.0
26/07:30am 22.7 20.2 17.2 71 3.4 N 26 33 14 18 1016.1 1016.1 0.0
26/07:00am 21.7 19.7 16.4 72 3.2 NNW 22 30 12 16 1016.0 1016.0 0.0
26/06:30am 20.6 20.4 16.6 78 2.4 NNW 13 15 7 8 1015.9 1015.9 0.0
26/06:00am 19.4 19.2 16.6 84 1.7 NW 13 17 7 9 1015.9 1015.9 0.0
26/05:30am 18.3 18.4 16.5 89 1.1 NW 11 15 6 8 1015.7 1015.7 0.0
26/05:00am 18.0 18.4 16.2 89 1.1 NW 9 13 5 7 1015.7 1015.7 0.0
26/04:30am 18.7 19.1 16.3 86 1.4 NW 9 13 5 7 1015.4 1015.4 0.0
26/04:00am 19.7 19.7 17.3 86 1.5 NNW 13 15 7 8 1015.4 1015.4 0.0
26/03:30am 20.1 19.1 17.5 85 1.6 N 19 22 10 12 1015.2 1015.2 0.0
26/03:00am 20.2 19.2 17.6 85 1.6 N 19 20 10 11 1015.1 1015.1 0.0
26/02:30am 20.2 19.6 17.6 85 1.6 N 17 20 9 11 1015.3 1015.3 0.0
26/02:00am 20.5 19.7 17.9 85 1.6 N 19 24 10 13 1015.3 1015.3 0.0
26/01:30am 20.7 19.2 17.7 83 1.8 N 22 28 12 15 1015.4 1015.4 0.0
26/01:00am 21.0 19.5 17.6 81 2.1 N 22 30 12 16 1015.8 1015.8 0.0
26/12:30am 21.0 20.3 17.4 80 2.2 NNW 17 24 9 13 1016.5 1016.5 0.0
26/12:00am 20.2 21.0 17.2 83 1.8 NW 9 13 5 7 1016.8 1016.8 0.0
 
Date/Time
EST
Tmp

°C
App
Tmp
°C
Dew
Point
°C
Rel
Hum
%
Delta-T

°C
Wind Press
QNH
hPa
Press
MSL
hPa
Rain
since
9 am
mm
Dir
 
Spd
km/h
Gust
km/h
Spd
kts
Gust
kts
25/11:30pm 20.3 20.7 17.3 83 1.8 NW 11 13 6 7 1017.1 1017.1 0.0
25/11:00pm 20.5 21.0 17.5 83 1.8 NW 11 15 6 8 1017.0 1017.0 0.0
25/10:30pm 21.1 21.3 17.7 81 2.1 NNW 13 17 7 9 1017.2 1017.2 0.0
25/10:00pm 21.2 21.8 17.6 80 2.2 NNW 11 17 6 9 1017.4 1017.4 0.0
25/09:30pm 21.6 22.3 18.0 80 2.2 NNW 11 17 6 9 1017.5 1017.5 0.0
25/09:00pm 21.6 20.8 18.0 80 2.2 NNW 19 28 10 15 1017.6 1017.6 0.0
25/08:30pm 21.7 20.8 18.3 81 2.1 NNW 20 28 11 15 1017.6 1017.6 0.0
25/08:00pm 21.7 21.6 18.7 83 1.9 N 17 24 9 13 1017.3 1017.3 0.0
25/07:30pm 22.0 21.3 18.6 81 2.1 N 20 28 11 15 1016.8 1016.8 0.0
25/07:00pm 22.1 20.2 18.5 80 2.3 N 26 33 14 18 1016.5 1016.5 0.0
25/06:30pm 22.2 21.6 18.4 79 2.4 N 19 26 10 14 1016.5 1016.5 0.0
25/06:00pm 22.2 19.9 18.4 79 2.4 N 28 35 15 19 1015.6 1015.6 0.0
25/05:30pm 22.6 19.8 18.2 76 2.8 N 30 41 16 22 1015.4 1015.4 0.0
25/05:00pm 22.9 19.9 17.8 73 3.2 N 30 39 16 21 1015.0 1015.0 0.0
25/04:30pm 22.9 19.5 17.8 73 3.2 N 32 41 17 22 1014.7 1014.7 0.0
25/04:00pm 23.0 19.6 17.7 72 3.3 N 32 41 17 22 1014.4 1014.4 0.0
25/03:30pm 24.7 20.8 17.9 66 4.3 N 35 46 19 25 1014.5 1014.5 0.0
25/03:00pm 25.0 20.8 18.0 65 4.4 N 37 50 20 27 1014.6 1014.6 0.0
25/02:30pm 24.9 20.5 17.6 64 4.6 N 37 46 20 25 1014.8 1014.8 0.0
25/02:00pm 24.6 19.9 16.8 62 4.8 N 37 46 20 25 1015.1 1015.1 0.0
25/01:30pm 25.1 20.3 17.6 63 4.7 N 39 50 21 27 1015.5 1015.5 0.0
25/01:00pm 25.5 21.2 17.7 62 4.9 N 37 48 20 26 1016.3 1016.3 0.0
25/12:30pm 24.6 20.0 17.1 63 4.6 N 37 46 20 25 1016.6 1016.6 0.0
25/12:00pm 25.7 20.4 16.3 56 5.8 N 39 50 21 27 1017.0 1017.0 0.0
25/11:30am 25.4 20.2 16.5 58 5.5 N 39 48 21 26 1017.5 1017.5 0.0
25/11:00am 24.8 19.5 16.2 58 5.2 N 39 48 21 26 1018.0 1018.0 0.0
25/10:30am 24.8 20.6 16.2 58 5.3 N 33 43 18 23 1018.6 1018.6 0.0
25/10:00am 25.0 20.3 14.8 53 6.1 N 33 41 18 22 1019.2 1019.2 0.0
25/09:30am 24.7 19.0 15.1 55 5.8 N 39 46 21 25 1019.6 1019.6 0.0
25/09:00am 24.3 19.7 15.0 56 5.5 N 33 44 18 24 1019.9 1019.9 0.0
25/08:30am 22.7 17.6 14.8 61 4.7 N 35 44 19 24 1020.1 1020.1 0.0
25/08:00am 23.5 20.0 14.5 57 5.3 NNW 26 37 14 20 1020.1 1020.1 0.0
25/07:30am 22.5 18.6 14.4 60 4.8 NNW 28 39 15 21 1020.1 1020.1 0.0
25/07:00am 21.8 18.6 14.2 62 4.4 NW 24 32 13 17 1020.0 1020.0 0.0
25/06:30am 20.8 17.9 14.0 65 3.9 NNW 22 32 12 17 1020.1 1020.1 0.0
25/06:00am 20.0 17.4 13.9 68 3.5 NW 20 30 11 16 1020.1 1020.1 0.0
25/05:30am 19.4 17.0 13.8 70 3.2 NW 19 26 10 14 1019.6 1019.6 0.0
25/05:00am 18.9 16.6 14.0 73 2.8 NW 19 28 10 15 1019.2 1019.2 0.0
25/04:30am 18.8 16.2 13.9 73 2.8 NW 20 30 11 16 1019.0 1019.0 0.0
25/04:00am 18.6 17.1 14.1 75 2.6 NW 15 20 8 11 1019.1 1019.1 0.0
25/03:30am 18.8 17.3 14.3 75 2.6 NW 15 22 8 12 1018.8 1018.8 0.0
25/03:00am 18.9 17.8 14.4 75 2.6 NW 13 19 7 10 1018.7 1018.7 0.0
25/02:30am 18.7 17.6 14.2 75 2.6 NW 13 20 7 11 1018.8 1018.8 0.0
25/02:00am 18.8 17.3 14.3 75 2.6 NW 15 20 8 11 1018.9 1018.9 0.0
25/01:30am 18.7 17.5 14.0 74 2.7 NW 13 19 7 10 1019.0 1019.0 0.0
25/01:00am 18.7 17.6 14.2 75 2.6 NW 13 17 7 9 1019.7 1019.7 0.0
25/12:30am 19.1 17.6 14.1 73 2.9 NNW 15 20 8 11 1020.0 1020.0 0.0
25/12:00am 19.5 18.0 14.3 72 3.0 NNW 15 20 8 11 1020.6 1020.6 0.0
 
Date/Time
EST
Tmp

°C
App
Tmp
°C
Dew
Point
°C
Rel
Hum
%
Delta-T

°C
Wind Press
QNH
hPa
Press
MSL
hPa
Rain
since
9 am
mm
Dir
 
Spd
km/h
Gust
km/h
Spd
kts
Gust
kts
24/11:30pm 19.7 18.2 14.1 70 3.2 NNW 15 22 8 12 1021.5 1021.5 0.0
24/11:00pm 20.5 18.3 14.8 70 3.3 NNW 20 28 11 15 1021.8 1021.8 0.0
24/10:30pm 20.5 18.7 14.4 68 3.6 NNW 17 24 9 13 1022.0 1022.0 0.0
24/10:00pm 21.0 19.2 14.4 66 3.8 NNW 17 26 9 14 1022.2 1022.2 0.0
24/09:30pm 21.3 19.1 14.9 67 3.8 NNW 20 28 11 15 1022.3 1022.3 0.0
24/09:00pm 21.5 18.9 15.8 70 3.4 N 24 32 13 17 1022.3 1022.3 0.0
24/08:30pm 21.5 18.4 15.6 69 3.5 N 26 35 14 19 1022.3 1022.3 0.0
24/08:00pm 21.6 18.6 15.9 70 3.4 N 26 35 14 19 1022.0 1022.0 0.0
24/07:30pm 21.6 19.0 15.9 70 3.4 N 24 32 13 17 1021.8 1021.8 0.0
24/07:00pm 21.7 19.8 15.8 69 3.5 N 20 30 11 16 1021.6 1021.6 0.0
24/06:30pm 21.7 18.7 15.8 69 3.5 N 26 32 14 17 1021.3 1021.3 0.0
24/06:00pm 21.7 19.0 15.5 68 3.7 N 24 30 13 16 1021.1 1021.1 0.0
24/05:30pm 21.7 18.8 15.1 66 3.9 N 24 30 13 16 1020.6 1020.6 0.0
24/05:00pm 22.5 19.8 14.6 61 4.6 NNE 22 28 12 15 1020.3 1020.3 0.0
24/04:30pm 22.8 19.7 14.6 60 4.8 N 24 30 13 16 1020.2 1020.2 0.0
24/04:00pm 23.5 20.3 15.3 60 4.9 NNE 26 32 14 17 1019.9 1019.9 0.0
24/03:30pm 23.3 20.2 14.6 58 5.1 NNE 24 28 13 15 1020.0 1020.0 0.0
24/03:00pm 23.5 20.4 14.5 57 5.3 NNE 24 30 13 16 1020.2 1020.2 0.0
24/02:30pm 23.9 20.8 14.6 56 5.5 NNE 24 32 13 17 1020.4 1020.4 0.0
24/02:00pm 24.8 22.0 15.4 56 5.7 NNE 24 30 13 16 1020.6 1020.6 0.0
24/01:30pm 24.3 21.4 15.2 57 5.5 NNE 24 30 13 16 1021.0 1021.0 0.0
24/01:00pm 25.2 22.2 15.8 56 5.7 NNE 26 32 14 17 1021.1 1021.1 0.0
24/12:30pm 24.8 21.6 15.4 56 5.7 NNE 26 32 14 17 1021.2 1021.2 0.0
24/12:00pm 24.2 20.9 15.1 56 5.4 NNE 26 32 14 17 1021.4 1021.4 0.0
24/11:30am 24.9 21.3 15.2 54 5.8 NNE 28 33 15 18 1021.5 1021.5 0.0
24/11:00am 24.6 20.9 15.0 55 5.7 NNE 28 32 15 17 1021.9 1021.9 0.0
24/10:30am 24.5 21.4 14.6 54 5.9 NNE 24 32 13 17 1022.3 1022.3 0.0
24/10:00am 24.8 21.5 15.1 54 5.8 N 26 30 14 16 1022.5 1022.5 0.0
24/09:30am 24.2 21.1 14.6 55 5.7 N 24 28 13 15 1022.9 1022.9 0.0
24/09:00am 23.8 21.4 14.5 56 5.5 N 20 28 11 15 1022.9 1022.9 0.0
24/08:30am 23.3 21.2 15.1 60 4.9 N 20 26 11 14 1022.7 1022.7 0.0
24/08:00am 22.8 20.2 13.8 57 5.2 N 20 28 11 15 1022.8 1022.8 0.0
24/07:30am 22.2 20.1 13.5 57 5.0 NNW 17 26 9 14 1022.7 1022.7 0.0
24/07:00am 21.3 20.0 14.9 67 3.8 NW 15 19 8 10 1022.7 1022.7 0.0
24/06:30am 19.7 19.1 14.5 72 3.0 NW 11 15 6 8 1022.6 1022.6 0.0
24/06:00am 19.3 18.6 14.3 73 2.9 NW 11 15 6 8 1022.2 1022.2 0.0
24/05:30am 18.8 18.0 14.1 74 2.7 NW 11 17 6 9 1022.0 1022.0 0.0
24/05:00am 18.8 18.0 13.9 73 2.8 WNW 11 15 6 8 1021.7 1021.7 0.0
24/04:30am 18.6 18.1 13.9 74 2.7 NW 9 15 5 8 1021.4 1021.4 0.0
24/04:00am 18.7 18.2 13.8 73 2.8 NW 9 13 5 7 1021.2 1021.2 0.0
24/03:30am 18.9 18.0 13.7 72 3.0 NW 11 15 6 8 1021.0 1021.0 0.0
24/03:00am 18.9 17.9 13.5 71 3.1 WNW 11 15 6 8 1021.0 1021.0 0.0
24/02:30am 18.9 17.9 13.5 71 3.1 WNW 11 15 6 8 1020.9 1020.9 0.0
24/02:00am 18.8 18.2 13.6 72 3.0 NW 9 13 5 7 1020.8 1020.8 0.0
24/01:30am 18.4 17.8 13.5 73 2.8 WNW 9 13 5 7 1021.0 1021.0 0.0
24/01:00am 18.1 17.5 13.4 74 2.6 WNW 9 13 5 7 1021.2 1021.2 0.0
24/12:30am 17.6 16.6 13.5 77 2.3 WNW 11 13 6 7 1021.5 1021.5 0.0
24/12:00am 17.4 17.0 13.1 76 2.4 NW 7 9 4 5 1021.6 1021.6 0.0
 
Date/Time
EST
Tmp

°C
App
Tmp
°C
Dew
Point
°C
Rel
Hum
%
Delta-T

°C
Wind Press
QNH
hPa
Press
MSL
hPa
Rain
since
9 am
mm
Dir
 
Spd
km/h
Gust
km/h
Spd
kts
Gust
kts
23/11:30pm 17.5 16.7 13.0 75 2.5 NW 9 11 5 6 1021.9 1021.9 0.0
23/11:00pm 18.6 18.3 13.2 71 3.0 WNW 7 9 4 5 1021.9 1021.9 0.0
23/10:30pm 20.5 18.1 13.9 66 3.8 N 19 26 10 14 1021.9 1021.9 0.0
23/10:00pm 20.2 17.7 13.4 65 3.9 N 19 24 10 13 1021.9 1021.9 0.0
23/09:30pm 20.6 18.0 13.3 63 4.2 N 19 22 10 12 1021.8 1021.8 0.0
23/09:00pm 21.0 18.6 13.9 64 4.1 N 19 24 10 13 1021.7 1021.7 0.0
23/08:30pm 21.0 18.4 13.7 63 4.2 N 20 26 11 14 1021.3 1021.3 0.0
23/08:00pm 20.8 18.7 13.5 63 4.2 N 17 20 9 11 1021.4 1021.4 0.0
23/07:30pm 20.8 18.6 13.3 62 4.3 N 17 20 9 11 1021.0 1021.0 0.0
23/07:00pm 20.9 18.8 13.6 63 4.2 N 17 22 9 12 1020.7 1020.7 0.0
23/06:30pm 21.0 18.6 13.7 63 4.2 N 19 22 10 12 1020.2 1020.2 0.0
23/06:00pm 20.9 19.0 14.1 65 3.9 N 17 20 9 11 1019.9 1019.9 0.0
23/05:30pm 21.2 18.8 13.9 63 4.2 N 19 22 10 12 1019.5 1019.5 0.0
23/05:00pm 21.6 19.0 13.8 61 4.5 N 20 24 11 13 1019.1 1019.1 0.0
23/04:30pm 22.1 19.6 14.0 60 4.7 N 20 24 11 13 1018.8 1018.8 0.0
23/04:00pm 22.7 19.9 13.2 55 5.5 N 20 28 11 15 1018.4 1018.4 0.0
23/03:30pm 22.9 19.4 13.4 55 5.5 N 24 28 13 15 1018.1 1018.1 0.0
23/03:00pm 23.3 19.9 13.8 55 5.5 N 24 32 13 17 1018.1 1018.1 0.0
23/02:30pm 23.7 20.3 13.8 53 5.8 N 24 32 13 17 1018.3 1018.3 0.0
23/02:00pm 23.1 19.3 13.6 55 5.5 N 26 32 14 17 1018.4 1018.4 0.0
23/01:30pm 23.1 19.5 13.0 53 5.8 N 24 30 13 16 1019.0 1019.0 0.0
23/01:00pm 23.2 19.8 13.7 55 5.5 NNE 24 32 13 17 1019.3 1019.3 0.0
23/12:30pm 23.7 20.2 13.3 52 6.0 NNE 24 30 13 16 1019.7 1019.7 0.0
23/12:00pm 23.7 20.2 13.3 52 6.0 NNE 24 30 13 16 1020.2 1020.2 0.0
23/11:30am 23.7 20.1 13.0 51 6.2 NNE 24 30 13 16 1020.5 1020.5 0.0
23/11:00am 22.7 18.8 12.0 50 6.0 NNE 24 32 13 17 1021.0 1021.0 0.0

Latest Capital City Observations: Canberra | Sydney | Melbourne | Brisbane | Adelaide | Perth | Hobart | Darwin

Other Formats:

Comma delimited format used in spreadsheet applications
http://www.bom.gov.au/fwo/IDQ60901/IDQ60901.94592.axf

JavaScript Object Notation format (JSON) in row-major order
http://www.bom.gov.au/fwo/IDQ60901/IDQ60901.94592.json